LYPG

Podgorica Airport

Podgorica, Montenegro
TAF LYPG 261100Z 2612/2712 16007KT 9999 FEW040 TX28/2613Z TN13/2704Z
Issued Valid From Valid To
Apr-26 @ 11:00 UTC
(2 hours ago)
Apr-26 @ 12:00 UTC
(an hour ago)
Apr-27 @ 12:00 UTC
(in 23 hours)
Apr-26 @ 12:00 to Apr-27 @ 12:00
TAF LYPG 261100Z 2612/2712 16007KT 9999 FEW040 TX28/2613Z TN13/2704Z
Wind Visibility Clouds
160° at 7 knots 10,000+ meters
  • Few at 4,000' AGL
TAF LYPG 261100Z 2612/2712 16007KT 9999 FEW040 TX28/2613Z TN13/2704Z
Issued Apr-26 @ 11:00 UTC
(2 hours ago)
Valid From Apr-26 @ 12:00 UTC
(an hour ago)
Valid To Apr-27 @ 12:00 UTC
(in 23 hours)
Apr-26 @ 12:00 - Apr-27 @ 12:00
Wind Visibility
160° at 7 knots 10,000+ meters
Clouds
  • Few at 4,000' AGL